createdAt,value
2017-09-20T00:02:06.165Z,13.10
2017-09-20T00:04:33.546Z,13.00
2017-09-20T00:07:00.829Z,12.90
2017-09-20T00:09:27.741Z,12.90
2017-09-20T00:11:55.073Z,13.00
2017-09-20T00:14:21.977Z,12.90
2017-09-20T00:16:49.273Z,12.80
2017-09-20T00:19:16.197Z,12.80
2017-09-20T00:21:43.110Z,12.80
2017-09-20T00:24:10.021Z,12.80
2017-09-20T00:26:36.970Z,12.80
2017-09-20T00:29:03.853Z,12.80
2017-09-20T00:31:30.761Z,12.80
2017-09-20T00:33:57.678Z,12.80
2017-09-20T00:36:24.595Z,12.80
2017-09-20T00:38:51.462Z,12.90
2017-09-20T00:41:18.371Z,12.80
2017-09-20T00:43:45.293Z,12.70
2017-09-20T00:46:12.189Z,12.70
2017-09-20T00:48:39.473Z,12.80
2017-09-20T00:51:06.407Z,12.80
2017-09-20T00:53:33.294Z,12.80
2017-09-20T00:56:00.621Z,12.80
2017-09-20T00:58:27.507Z,12.80
2017-09-20T01:00:54.817Z,12.90
2017-09-20T01:03:21.741Z,12.90
2017-09-20T01:05:48.626Z,12.90
2017-09-20T01:08:15.517Z,12.90
2017-09-20T01:10:42.419Z,12.90
2017-09-20T01:13:09.366Z,12.80
2017-09-20T01:15:36.274Z,12.70
2017-09-20T01:18:03.158Z,12.70
2017-09-20T01:20:41.901Z,12.70
2017-09-20T01:23:20.310Z,12.70
2017-09-20T01:25:47.617Z,12.60
2017-09-20T01:28:14.514Z,12.60
2017-09-20T01:30:41.829Z,12.40
2017-09-20T01:33:08.793Z,12.40
2017-09-20T01:35:35.682Z,12.20
2017-09-20T01:38:02.596Z,11.90
2017-09-20T01:40:29.946Z,11.90
2017-09-20T01:42:57.293Z,11.90
2017-09-20T01:45:24.245Z,11.90
2017-09-20T01:47:51.133Z,11.90
2017-09-20T01:50:18.138Z,12.00
2017-09-20T01:52:45.077Z,12.00
2017-09-20T01:55:12.042Z,11.90
2017-09-20T01:57:39.322Z,12.20
2017-09-20T02:00:06.324Z,12.20
2017-09-20T02:02:33.656Z,12.20
2017-09-20T02:05:00.605Z,12.20
2017-09-20T02:07:27.959Z,12.40
2017-09-20T02:09:54.843Z,12.40
2017-09-20T02:12:21.775Z,12.30
2017-09-20T02:14:49.053Z,12.30
2017-09-20T02:17:16.056Z,12.30
2017-09-20T02:19:42.963Z,12.20
2017-09-20T02:22:09.919Z,12.20
2017-09-20T02:24:36.841Z,12.30
2017-09-20T02:27:03.806Z,12.40
2017-09-20T02:29:30.685Z,12.40
2017-09-20T02:31:57.692Z,12.40
2017-09-20T02:34:24.659Z,12.50
2017-09-20T02:36:51.970Z,12.60
2017-09-20T02:39:18.849Z,12.60
2017-09-20T02:41:45.796Z,12.50
2017-09-20T02:44:12.672Z,12.50
2017-09-20T02:46:39.585Z,12.50
2017-09-20T02:49:06.874Z,12.60
2017-09-20T02:51:33.776Z,12.60
2017-09-20T02:54:00.709Z,12.60
2017-09-20T02:56:27.593Z,12.60
2017-09-20T02:58:54.925Z,12.50
2017-09-20T03:01:21.829Z,12.50
2017-09-20T03:03:48.721Z,12.50
2017-09-20T03:06:15.664Z,12.50
2017-09-20T03:08:42.617Z,12.50
2017-09-20T03:11:09.571Z,12.50
2017-09-20T03:13:36.883Z,12.40
2017-09-20T03:16:03.789Z,12.40
2017-09-20T03:18:30.669Z,12.40
2017-09-20T03:20:57.651Z,12.20
2017-09-20T03:23:24.549Z,12.00
2017-09-20T03:25:51.541Z,11.80
2017-09-20T03:28:18.489Z,11.70
2017-09-20T03:30:45.430Z,11.50
2017-09-20T03:33:12.318Z,11.50
2017-09-20T03:35:39.204Z,11.50
2017-09-20T03:38:06.175Z,11.50
2017-09-20T03:40:33.094Z,11.60
2017-09-20T03:43:00.067Z,11.70
2017-09-20T03:45:27.017Z,11.70
2017-09-20T03:47:53.954Z,11.80
2017-09-20T03:50:20.911Z,12.00
2017-09-20T03:52:47.856Z,12.10
2017-09-20T03:55:14.738Z,12.10
2017-09-20T03:57:41.654Z,12.10
2017-09-20T04:00:08.961Z,12.10
2017-09-20T04:02:35.941Z,12.10
2017-09-20T04:05:02.894Z,12.30
2017-09-20T04:07:29.847Z,12.30
2017-09-20T04:09:57.189Z,12.20
2017-09-20T04:12:24.182Z,12.20
2017-09-20T04:14:51.065Z,12.20
2017-09-20T04:17:18.039Z,12.30
2017-09-20T04:19:44.977Z,12.40
2017-09-20T04:22:11.866Z,12.40
2017-09-20T04:24:38.775Z,12.30
2017-09-20T04:27:05.691Z,12.30
2017-09-20T04:29:32.578Z,12.30
2017-09-20T04:31:59.849Z,12.40
2017-09-20T04:34:26.754Z,12.40
2017-09-20T04:36:53.637Z,12.40
2017-09-20T04:39:20.651Z,12.40
2017-09-20T04:41:47.529Z,12.40
2017-09-20T04:44:14.544Z,12.40
2017-09-20T04:46:41.433Z,12.40
2017-09-20T04:49:08.333Z,12.40
2017-09-20T04:51:35.281Z,12.40
2017-09-20T04:54:02.233Z,12.30
2017-09-20T04:56:29.174Z,12.30
2017-09-20T04:58:56.105Z,12.20
2017-09-20T05:01:23.389Z,12.20
2017-09-20T05:03:50.293Z,12.20
2017-09-20T05:06:17.605Z,12.00
2017-09-20T05:08:44.502Z,12.00
2017-09-20T05:11:11.835Z,11.80
2017-09-20T05:13:38.803Z,11.80
2017-09-20T05:16:06.134Z,11.80
2017-09-20T05:18:33.083Z,11.80
2017-09-20T05:21:00.032Z,11.80
2017-09-20T05:23:26.993Z,11.80
2017-09-20T05:25:54.024Z,11.90
2017-09-20T05:28:21.241Z,11.90
2017-09-20T05:30:48.225Z,11.90
2017-09-20T05:33:15.178Z,11.80
2017-09-20T05:35:42.126Z,11.70
2017-09-20T05:38:09.070Z,11.50
2017-09-20T05:40:35.988Z,11.40
2017-09-20T05:43:02.874Z,11.50
2017-09-20T05:45:30.161Z,11.50
2017-09-20T05:47:57.154Z,11.50
2017-09-20T05:50:24.097Z,11.70
2017-09-20T05:52:51.057Z,11.70
2017-09-20T05:55:18.406Z,11.60
2017-09-20T05:57:45.299Z,11.60
2017-09-20T06:00:12.190Z,11.70
2017-09-20T06:02:39.141Z,11.70
2017-09-20T06:05:06.031Z,11.70
2017-09-20T06:07:32.976Z,11.70
2017-09-20T06:09:59.889Z,11.90
2017-09-20T06:12:27.233Z,12.20
2017-09-20T06:14:54.133Z,12.20
2017-09-20T06:17:21.046Z,12.30
2017-09-20T06:19:48.382Z,12.50
2017-09-20T06:22:15.272Z,12.50
2017-09-20T06:24:42.197Z,12.50
2017-09-20T06:27:09.517Z,12.60
2017-09-20T06:29:36.406Z,12.60
2017-09-20T06:32:03.426Z,12.70
2017-09-20T06:34:30.314Z,12.70
2017-09-20T06:36:57.250Z,12.80
2017-09-20T06:39:24.166Z,12.80
2017-09-20T06:41:51.510Z,12.90
2017-09-20T06:44:18.460Z,12.90
2017-09-20T06:46:45.410Z,12.90
2017-09-20T06:49:12.290Z,13.00
2017-09-20T06:51:39.178Z,13.10
2017-09-20T06:54:06.106Z,13.20
2017-09-20T06:56:33.089Z,13.40
2017-09-20T06:58:59.974Z,13.50
2017-09-20T07:01:27.024Z,13.60
2017-09-20T07:03:53.920Z,13.60
2017-09-20T07:06:20.873Z,13.70
2017-09-20T07:08:47.820Z,13.60
2017-09-20T07:11:14.769Z,13.30
2017-09-20T07:13:41.715Z,12.90
2017-09-20T07:16:08.701Z,12.80
2017-09-20T07:18:35.599Z,12.60
2017-09-20T07:21:02.549Z,12.70
2017-09-20T07:23:29.473Z,12.90
2017-09-20T07:25:56.365Z,13.10
2017-09-20T07:28:23.651Z,13.20
2017-09-20T07:30:50.645Z,13.20
2017-09-20T07:33:17.532Z,13.10
2017-09-20T07:35:44.414Z,13.20
2017-09-20T07:38:11.337Z,13.30
2017-09-20T07:40:38.216Z,13.40
2017-09-20T07:43:05.112Z,13.60
2017-09-20T07:45:32.045Z,13.90
2017-09-20T07:47:58.967Z,14.00
2017-09-20T07:50:25.905Z,14.10
2017-09-20T07:52:52.853Z,14.20
2017-09-20T07:55:19.818Z,14.30
2017-09-20T07:57:47.156Z,14.40
2017-09-20T08:00:14.090Z,14.40
2017-09-20T08:02:41.066Z,14.40
2017-09-20T08:05:08.405Z,14.70
2017-09-20T08:07:35.325Z,14.70
2017-09-20T08:10:02.214Z,14.40
2017-09-20T08:12:29.553Z,14.20
2017-09-20T08:14:56.498Z,14.30
2017-09-20T08:17:23.385Z,14.40
2017-09-20T08:19:50.274Z,14.40
2017-09-20T08:22:17.197Z,14.50
2017-09-20T08:24:44.097Z,14.60
2017-09-20T08:27:11.438Z,14.70
2017-09-20T08:29:38.363Z,14.70
2017-09-20T08:32:05.326Z,14.70
2017-09-20T08:34:32.270Z,14.80
2017-09-20T08:36:59.222Z,14.90
2017-09-20T08:39:26.117Z,14.90
2017-09-20T08:41:53.002Z,14.90
2017-09-20T08:44:20.325Z,15.10
2017-09-20T08:46:47.278Z,15.10
2017-09-20T08:49:14.183Z,15.10
2017-09-20T08:51:41.174Z,15.20
2017-09-20T08:54:08.113Z,15.20
2017-09-20T08:56:35.062Z,15.10
2017-09-20T08:59:02.006Z,14.90
2017-09-20T09:01:28.890Z,14.40
2017-09-20T09:03:55.806Z,14.30
2017-09-20T09:06:23.126Z,14.70
2017-09-20T09:08:50.011Z,14.70
2017-09-20T09:11:17.356Z,15.10
2017-09-20T09:13:44.298Z,15.20
2017-09-20T09:16:11.258Z,15.10
2017-09-20T09:18:38.545Z,15.00
2017-09-20T09:21:05.493Z,15.00
2017-09-20T09:23:32.389Z,15.00
2017-09-20T09:25:59.350Z,14.90
2017-09-20T09:28:26.661Z,15.10
2017-09-20T09:30:53.554Z,15.10
2017-09-20T09:33:20.828Z,15.40
2017-09-20T09:35:47.737Z,15.40
2017-09-20T09:38:14.626Z,15.70
2017-09-20T09:40:41.533Z,15.90
2017-09-20T09:43:08.453Z,16.20
2017-09-20T09:45:35.334Z,16.40
2017-09-20T09:48:02.609Z,16.70
2017-09-20T09:50:29.525Z,16.70
2017-09-20T09:52:56.478Z,16.80
2017-09-20T09:55:23.758Z,16.90
2017-09-20T09:57:50.685Z,16.90
2017-09-20T10:00:18.017Z,17.10
2017-09-20T10:02:44.902Z,17.10
2017-09-20T10:05:11.917Z,17.20
2017-09-20T10:07:38.801Z,17.20
2017-09-20T10:10:05.689Z,17.20
2017-09-20T10:12:32.607Z,17.20
2017-09-20T10:14:59.501Z,17.30
2017-09-20T10:17:26.442Z,17.60
2017-09-20T10:19:53.381Z,17.80
2017-09-20T10:22:20.282Z,18.00
2017-09-20T10:24:47.172Z,18.00
2017-09-20T10:27:14.132Z,18.10
2017-09-20T10:29:41.115Z,18.20
2017-09-20T10:32:07.993Z,18.30
2017-09-20T10:34:34.964Z,18.20
2017-09-20T10:37:01.905Z,18.40
2017-09-20T10:39:28.901Z,18.50
2017-09-20T10:41:55.862Z,18.30
2017-09-20T10:44:22.795Z,18.10
2017-09-20T10:46:49.797Z,18.10
2017-09-20T10:49:16.741Z,18.20
2017-09-20T10:51:43.633Z,18.30
2017-09-20T10:54:10.513Z,18.40
2017-09-20T10:56:37.481Z,18.50
2017-09-20T10:59:04.429Z,18.60
2017-09-20T11:01:31.333Z,18.70
2017-09-20T11:03:58.254Z,18.70
2017-09-20T11:06:25.168Z,18.80
2017-09-20T11:08:52.114Z,18.60
2017-09-20T11:11:19.476Z,18.60
2017-09-20T11:13:46.362Z,18.60
2017-09-20T11:16:13.259Z,18.80
2017-09-20T11:18:40.185Z,18.90
2017-09-20T11:21:07.085Z,19.10
2017-09-20T11:23:33.965Z,19.00
2017-09-20T11:26:00.941Z,18.90
2017-09-20T11:28:27.829Z,18.80
2017-09-20T11:30:54.729Z,18.90
2017-09-20T11:33:21.680Z,19.00
2017-09-20T11:35:48.621Z,19.00
2017-09-20T11:38:15.508Z,19.10
2017-09-20T11:40:42.448Z,19.10
2017-09-20T11:43:09.354Z,19.10
2017-09-20T11:45:36.242Z,19.30
2017-09-20T11:48:03.258Z,19.60
2017-09-20T11:50:30.202Z,19.90
2017-09-20T11:52:57.191Z,20.00
2017-09-20T11:55:24.134Z,19.90
2017-09-20T11:57:51.013Z,19.80
2017-09-20T12:00:17.985Z,19.00
2017-09-20T12:02:44.912Z,18.70
2017-09-20T12:05:11.882Z,18.70
2017-09-20T12:07:38.830Z,18.80
2017-09-20T12:10:05.750Z,18.20
2017-09-20T12:12:32.722Z,18.00
2017-09-20T12:14:59.666Z,17.90
2017-09-20T12:17:26.620Z,18.00
2017-09-20T12:19:53.912Z,18.60
2017-09-20T12:22:20.793Z,18.60
2017-09-20T12:24:47.759Z,18.80
2017-09-20T12:27:14.650Z,18.90
2017-09-20T12:29:41.545Z,19.00
2017-09-20T12:32:08.469Z,18.80
2017-09-20T12:34:35.437Z,18.50
2017-09-20T12:37:02.450Z,18.70
2017-09-20T12:39:29.374Z,18.80
2017-09-20T12:41:56.282Z,18.60
2017-09-20T12:44:23.168Z,18.60
2017-09-20T12:46:50.086Z,18.80
2017-09-20T12:49:17.425Z,19.00
2017-09-20T12:51:44.322Z,19.00
2017-09-20T12:54:11.238Z,18.50
2017-09-20T12:56:38.521Z,17.90
2017-09-20T12:59:05.563Z,17.90
2017-09-20T13:01:32.570Z,17.90
2017-09-20T13:03:59.521Z,17.50
2017-09-20T13:06:26.409Z,17.20
2017-09-20T13:08:53.328Z,17.20
2017-09-20T13:11:20.659Z,17.10
2017-09-20T13:13:47.556Z,17.10
2017-09-20T13:16:14.491Z,17.00
2017-09-20T13:18:41.369Z,17.10
2017-09-20T13:21:08.262Z,17.10
2017-09-20T13:23:35.705Z,17.30
2017-09-20T13:26:02.690Z,17.30
2017-09-20T13:28:29.646Z,17.50
2017-09-20T13:30:56.575Z,17.80
2017-09-20T13:33:23.493Z,18.10
2017-09-20T13:35:50.381Z,18.50
2017-09-20T13:38:17.301Z,19.00
2017-09-20T13:40:44.652Z,19.40
2017-09-20T13:43:11.930Z,19.50
2017-09-20T13:45:38.930Z,19.50
2017-09-20T13:48:05.881Z,19.80
2017-09-20T13:50:33.415Z,20.00
2017-09-20T13:53:00.329Z,20.10
2017-09-20T13:55:27.225Z,20.30
2017-09-20T13:57:54.105Z,20.50
2017-09-20T14:00:21.530Z,20.90
2017-09-20T14:02:48.413Z,20.90
2017-09-20T14:05:15.290Z,20.90
2017-09-20T14:07:42.266Z,20.90
2017-09-20T14:10:09.145Z,20.70
2017-09-20T14:12:36.091Z,20.60
2017-09-20T14:15:03.450Z,20.50
2017-09-20T14:17:30.329Z,20.50
2017-09-20T14:19:57.341Z,19.30
2017-09-20T14:22:24.370Z,18.70
2017-09-20T14:24:51.718Z,19.20
2017-09-20T14:27:18.600Z,19.20
2017-09-20T14:29:45.529Z,19.50
2017-09-20T14:32:12.813Z,20.30
2017-09-20T14:34:39.713Z,20.30
2017-09-20T14:37:06.630Z,20.50
2017-09-20T14:39:33.597Z,20.70
2017-09-20T14:42:00.473Z,20.50
2017-09-20T14:44:27.486Z,20.40
2017-09-20T14:46:54.438Z,20.40
2017-09-20T14:49:21.381Z,20.20
2017-09-20T14:51:48.301Z,20.20
2017-09-20T14:54:15.197Z,20.00
2017-09-20T14:56:42.474Z,20.00
2017-09-20T14:59:09.473Z,20.10
2017-09-20T15:01:36.422Z,20.30
2017-09-20T15:04:03.382Z,20.00
2017-09-20T15:06:30.717Z,18.80
2017-09-20T15:08:57.598Z,18.80
2017-09-20T15:11:24.923Z,19.00
2017-09-20T15:13:51.870Z,19.00
2017-09-20T15:16:18.834Z,19.10
2017-09-20T15:18:46.170Z,19.20
2017-09-20T15:21:13.094Z,19.20
2017-09-20T15:23:39.981Z,19.30
2017-09-20T15:26:07.321Z,19.30
2017-09-20T15:28:34.255Z,19.30
2017-09-20T15:31:01.170Z,19.10
2017-09-20T15:33:28.052Z,19.20
2017-09-20T15:35:55.005Z,19.30
2017-09-20T15:38:21.910Z,19.30
2017-09-20T15:40:48.803Z,19.20
2017-09-20T15:43:15.738Z,19.20
2017-09-20T15:45:42.698Z,19.10
2017-09-20T15:48:09.676Z,18.80
2017-09-20T15:50:36.585Z,18.90
2017-09-20T15:53:03.462Z,19.30
2017-09-20T15:55:30.337Z,19.50
2017-09-20T15:57:57.254Z,19.70
2017-09-20T16:00:24.157Z,19.90
2017-09-20T16:02:51.114Z,19.90
2017-09-20T16:05:18.447Z,19.90
2017-09-20T16:07:45.403Z,19.90
2017-09-20T16:10:12.276Z,20.60
2017-09-20T16:12:39.587Z,22.40
2017-09-20T16:15:06.557Z,22.40
2017-09-20T16:17:33.545Z,23.20
2017-09-20T16:20:00.522Z,23.60
2017-09-20T16:22:27.402Z,23.80
2017-09-20T16:24:54.278Z,23.60
2017-09-20T16:27:21.326Z,22.80
2017-09-20T16:29:48.219Z,21.90
2017-09-20T16:32:15.202Z,21.00
2017-09-20T16:34:42.526Z,19.80
2017-09-20T16:37:09.494Z,19.90
2017-09-20T16:39:36.839Z,19.20
2017-09-20T16:42:03.789Z,19.20
2017-09-20T16:44:30.701Z,19.00
2017-09-20T16:46:57.588Z,18.70
2017-09-20T16:49:24.897Z,18.80
2017-09-20T16:51:51.798Z,18.80
2017-09-20T16:54:19.133Z,18.80
2017-09-20T16:56:46.057Z,18.80
2017-09-20T16:59:13.025Z,18.70
2017-09-20T17:01:39.904Z,18.60
2017-09-20T17:04:06.814Z,18.60
2017-09-20T17:06:33.694Z,18.60
2017-09-20T17:09:00.609Z,18.60
2017-09-20T17:11:27.553Z,18.50
2017-09-20T17:13:54.501Z,18.50
2017-09-20T17:16:21.446Z,18.40
2017-09-20T17:18:48.391Z,18.30
2017-09-20T17:21:15.298Z,18.20
2017-09-20T17:23:42.193Z,18.10
2017-09-20T17:26:09.541Z,17.90
2017-09-20T17:28:36.454Z,17.90
2017-09-20T17:31:03.349Z,17.90
2017-09-20T17:33:30.658Z,17.70
2017-09-20T17:35:57.553Z,17.70
2017-09-20T17:38:24.862Z,17.50
2017-09-20T17:40:51.834Z,17.50
2017-09-20T17:43:18.782Z,17.40
2017-09-20T17:45:46.134Z,17.30
2017-09-20T17:48:13.049Z,17.30
2017-09-20T17:50:39.966Z,17.20
2017-09-20T17:53:06.853Z,17.00
2017-09-20T17:55:33.828Z,17.00
2017-09-20T17:58:01.133Z,16.80
2017-09-20T18:00:28.030Z,16.80
2017-09-20T18:02:55.349Z,16.60
2017-09-20T18:05:22.240Z,16.70
2017-09-20T18:07:49.521Z,16.40
2017-09-20T18:10:16.522Z,16.40
2017-09-20T18:12:43.461Z,16.40
2017-09-20T18:15:10.420Z,16.30
2017-09-20T18:17:37.312Z,16.40
2017-09-20T18:20:04.205Z,16.30
2017-09-20T18:22:31.120Z,16.20
2017-09-20T18:24:58.094Z,16.10
2017-09-20T18:27:25.039Z,16.10
2017-09-20T18:29:51.991Z,16.20
2017-09-20T18:32:18.979Z,16.20
2017-09-20T18:34:45.852Z,16.10
2017-09-20T18:37:12.783Z,16.00
2017-09-20T18:39:39.654Z,15.90
2017-09-20T18:42:06.539Z,15.90
2017-09-20T18:44:33.873Z,15.70
2017-09-20T18:47:00.814Z,15.70
2017-09-20T18:49:27.702Z,15.70
2017-09-20T18:51:54.611Z,15.60
2017-09-20T18:54:21.893Z,15.50
2017-09-20T18:56:48.909Z,15.50
2017-09-20T18:59:15.857Z,15.40
2017-09-20T19:01:42.761Z,15.30
2017-09-20T19:04:09.745Z,15.20
2017-09-20T19:06:36.639Z,15.20
2017-09-20T19:09:05.503Z,15.20
2017-09-20T19:11:32.851Z,15.10
2017-09-20T19:13:59.781Z,15.10
2017-09-20T19:16:26.742Z,15.00
2017-09-20T19:18:53.663Z,14.90
2017-09-20T19:21:20.626Z,14.90
2017-09-20T19:23:47.545Z,14.90
2017-09-20T19:26:14.517Z,14.90
2017-09-20T19:28:41.463Z,14.90
2017-09-20T19:31:08.435Z,14.80
2017-09-20T19:33:35.726Z,14.70
2017-09-20T19:36:02.717Z,14.70
2017-09-20T19:38:29.632Z,14.60
2017-09-20T19:40:56.514Z,14.50
2017-09-20T19:43:23.456Z,14.50
2017-09-20T19:45:50.333Z,14.40
2017-09-20T19:48:17.350Z,14.40
2017-09-20T19:50:44.237Z,14.20
2017-09-20T19:53:11.133Z,14.30
2017-09-20T19:55:41.847Z,14.20
2017-09-20T19:58:08.749Z,14.10
2017-09-20T20:00:35.625Z,14.00
2017-09-20T20:03:02.566Z,13.90
2017-09-20T20:05:29.562Z,13.90
2017-09-20T20:07:56.609Z,13.90
2017-09-20T20:10:24.004Z,14.00
2017-09-20T20:12:50.909Z,14.00
2017-09-20T20:15:17.793Z,13.90
2017-09-20T20:17:44.801Z,13.90
2017-09-20T20:20:11.759Z,13.80
2017-09-20T20:22:39.038Z,13.70
2017-09-20T20:25:05.943Z,13.70
2017-09-20T20:27:32.897Z,13.70
2017-09-20T20:29:59.785Z,13.70
2017-09-20T20:32:26.698Z,13.70
2017-09-20T20:34:53.594Z,13.70
2017-09-20T20:37:20.484Z,13.80
2017-09-20T20:39:47.398Z,13.70
2017-09-20T20:42:14.316Z,13.50
2017-09-20T20:44:41.230Z,13.40
2017-09-20T20:47:08.510Z,13.40
2017-09-20T20:49:35.417Z,13.40
2017-09-20T20:52:02.742Z,13.40
2017-09-20T20:54:29.625Z,13.40
2017-09-20T20:56:56.965Z,13.30
2017-09-20T20:59:23.858Z,13.30
2017-09-20T21:01:50.763Z,13.30
2017-09-20T21:04:18.073Z,13.40
2017-09-20T21:06:44.961Z,13.40
2017-09-20T21:09:11.874Z,13.40
2017-09-20T21:11:38.765Z,13.40
2017-09-20T21:14:06.072Z,13.50
2017-09-20T21:16:33.040Z,13.50
2017-09-20T21:18:59.995Z,13.40
2017-09-20T21:21:26.937Z,13.30
2017-09-20T21:23:53.881Z,13.30
2017-09-20T21:26:20.765Z,13.20
2017-09-20T21:28:47.777Z,13.00
2017-09-20T21:31:14.656Z,13.00
2017-09-20T21:33:41.543Z,13.10
2017-09-20T21:36:08.517Z,13.10
2017-09-20T21:38:35.421Z,13.10
2017-09-20T21:41:02.358Z,13.10
2017-09-20T21:43:29.292Z,13.10
2017-09-20T21:45:56.208Z,12.90
2017-09-20T21:48:23.142Z,12.90
2017-09-20T21:50:50.089Z,12.90
2017-09-20T21:53:17.045Z,12.90
2017-09-20T21:55:43.989Z,12.90
2017-09-20T21:58:10.870Z,12.80
2017-09-20T22:00:37.762Z,12.70
2017-09-20T22:03:04.717Z,12.70
2017-09-20T22:05:31.602Z,12.80
2017-09-20T22:07:58.493Z,12.80
2017-09-20T22:10:25.414Z,12.70
2017-09-20T22:12:52.370Z,12.70
2017-09-20T22:15:31.228Z,12.60
2017-09-20T22:18:10.009Z,12.50
2017-09-20T22:20:48.945Z,12.40
2017-09-20T22:23:27.877Z,12.40
2017-09-20T22:26:06.665Z,12.40
2017-09-20T22:28:34.497Z,12.40
2017-09-20T22:31:01.449Z,12.30
2017-09-20T22:33:28.378Z,12.20
2017-09-20T22:35:55.261Z,12.20
2017-09-20T22:38:22.534Z,12.10
2017-09-20T22:40:49.546Z,12.10
2017-09-20T22:43:16.494Z,12.00
2017-09-20T22:45:43.378Z,12.00
2017-09-20T22:48:10.326Z,12.00
2017-09-20T22:50:37.250Z,12.00
2017-09-20T22:53:04.549Z,11.90
2017-09-20T22:55:31.552Z,11.90
2017-09-20T22:57:58.872Z,12.00
2017-09-20T23:00:25.810Z,12.00
2017-09-20T23:02:52.702Z,12.00
2017-09-20T23:05:20.025Z,11.90
2017-09-20T23:07:46.950Z,11.90
2017-09-20T23:10:13.829Z,11.90
2017-09-20T23:12:41.173Z,12.00
2017-09-20T23:15:08.108Z,12.00
2017-09-20T23:17:35.067Z,12.00
2017-09-20T23:20:01.953Z,11.90
2017-09-20T23:22:28.870Z,11.80
2017-09-20T23:24:56.213Z,11.60
2017-09-20T23:27:23.125Z,11.60
2017-09-20T23:29:50.105Z,11.60
2017-09-20T23:32:17.057Z,11.60
2017-09-20T23:34:43.962Z,11.50
2017-09-20T23:37:10.974Z,11.50
2017-09-20T23:39:38.258Z,11.60
2017-09-20T23:42:05.135Z,11.60
2017-09-20T23:44:32.098Z,11.60
2017-09-20T23:46:59.042Z,11.60
2017-09-20T23:49:25.993Z,11.50
2017-09-20T23:51:53.350Z,11.40
2017-09-20T23:54:20.233Z,11.40
2017-09-20T23:56:47.230Z,11.30
2017-09-20T23:59:14.182Z,11.30
